createdAt,value
2019-01-18T00:01:24.049Z,95138.94
2019-01-18T00:03:51.674Z,95136.30
2019-01-18T00:06:19.279Z,95135.32
2019-01-18T00:08:46.823Z,95132.50
2019-01-18T00:11:14.400Z,95132.50
2019-01-18T00:13:42.057Z,95133.02
2019-01-18T00:16:09.584Z,95135.43
2019-01-18T00:18:37.048Z,95140.52
2019-01-18T00:21:04.584Z,95147.72
2019-01-18T00:23:32.180Z,95147.63
2019-01-18T00:25:59.626Z,95143.37
2019-01-18T00:28:27.192Z,95143.37
2019-01-18T00:30:54.822Z,95141.88
2019-01-18T00:33:22.445Z,95153.78
2019-01-18T00:35:50.265Z,95151.41
2019-01-18T00:38:17.740Z,95148.94
2019-01-18T00:40:45.350Z,95154.89
2019-01-18T00:43:12.919Z,95154.89
2019-01-18T00:45:40.577Z,95157.45
2019-01-18T00:48:08.271Z,95146.70
2019-01-18T00:50:35.964Z,95146.70
2019-01-18T00:53:03.777Z,95143.33
2019-01-18T00:55:31.558Z,95148.81
2019-01-18T00:57:59.088Z,95149.82
2019-01-18T01:00:27.847Z,95148.63
2019-01-18T01:02:55.574Z,95148.63
2019-01-18T01:05:24.014Z,95141.08
2019-01-18T01:07:51.654Z,95115.48
2019-01-18T01:10:19.376Z,95133.69
2019-01-18T01:12:47.044Z,95140.71
2019-01-18T01:15:16.520Z,95151.69
2019-01-18T01:17:44.158Z,95148.56
2019-01-18T01:20:15.604Z,95144.13
2019-01-18T01:22:43.419Z,95134.52
2019-01-18T01:25:11.290Z,95134.88
2019-01-18T01:27:39.317Z,95142.32
2019-01-18T01:30:11.154Z,95144.53
2019-01-18T01:32:38.746Z,95135.06
2019-01-18T01:35:06.661Z,95134.62
2019-01-18T01:37:34.425Z,95130.74
2019-01-18T01:40:02.009Z,95137.77
2019-01-18T01:42:29.471Z,95131.04
2019-01-18T01:44:56.972Z,95121.80
2019-01-18T01:47:24.461Z,95116.31
2019-01-18T01:49:51.976Z,95126.38
2019-01-18T01:52:19.382Z,95116.56
2019-01-18T01:54:47.346Z,95110.06
2019-01-18T01:57:14.869Z,95116.88
2019-01-18T01:59:42.414Z,95107.29
2019-01-18T02:02:09.956Z,95110.92
2019-01-18T02:04:37.526Z,95107.23
2019-01-18T02:07:05.165Z,95104.69
2019-01-18T02:09:32.706Z,95111.53
2019-01-18T02:12:00.286Z,95103.55
2019-01-18T02:14:27.903Z,95115.81
2019-01-18T02:16:55.367Z,95108.64
2019-01-18T02:19:22.909Z,95105.75
2019-01-18T02:21:50.632Z,95102.83
2019-01-18T02:24:18.324Z,95099.48
2019-01-18T02:26:46.004Z,95107.47
2019-01-18T02:29:13.725Z,95108.44
2019-01-18T02:31:41.279Z,95105.30
2019-01-18T02:34:08.800Z,95114.73
2019-01-18T02:36:36.840Z,95117.87
2019-01-18T02:39:07.424Z,95109.63
2019-01-18T02:41:34.988Z,95104.46
2019-01-18T02:44:02.521Z,95108.50
2019-01-18T02:46:29.958Z,95106.37
2019-01-18T02:48:57.393Z,95101.21
2019-01-18T02:51:24.877Z,95105.55
2019-01-18T02:53:52.435Z,95099.87
2019-01-18T02:56:20.207Z,95102.28
2019-01-18T02:58:47.769Z,95108.56
2019-01-18T03:01:15.279Z,95100.79
2019-01-18T03:03:42.783Z,95112.69
2019-01-18T03:06:10.257Z,95108.31
2019-01-18T03:08:37.900Z,95103.13
2019-01-18T03:11:05.491Z,95103.13
2019-01-18T03:13:33.115Z,95102.71
2019-01-18T03:16:00.811Z,95103.66
2019-01-18T03:18:28.371Z,95107.44
2019-01-18T03:20:55.878Z,95102.72
2019-01-18T03:23:23.347Z,95102.05
2019-01-18T03:25:50.889Z,95101.30
2019-01-18T03:28:18.358Z,95099.66
2019-01-18T03:30:45.906Z,95105.45
2019-01-18T03:33:13.424Z,95097.77
2019-01-18T03:35:40.945Z,95097.20
2019-01-18T03:38:08.715Z,95089.39
2019-01-18T03:40:36.524Z,95099.34
2019-01-18T03:43:04.133Z,95083.37
2019-01-18T03:45:31.650Z,95083.37
2019-01-18T03:47:59.161Z,95092.54
2019-01-18T03:50:27.171Z,95085.55
2019-01-18T03:52:54.708Z,95085.55
2019-01-18T03:55:22.511Z,95082.87
2019-01-18T03:57:50.464Z,95087.27
2019-01-18T04:00:25.990Z,95090.12
2019-01-18T04:02:50.024Z,95093.37
2019-01-18T04:05:17.601Z,95086.48
2019-01-18T04:07:45.155Z,95085.70
2019-01-18T04:10:14.610Z,95082.81
2019-01-18T04:12:42.477Z,95086.90
2019-01-18T04:15:12.791Z,95087.54
2019-01-18T04:17:40.318Z,95086.09
2019-01-18T04:20:09.272Z,95089.96
2019-01-18T04:22:37.101Z,95086.14
2019-01-18T04:25:07.173Z,95089.56
2019-01-18T04:27:34.958Z,95089.62
2019-01-18T04:30:03.919Z,95093.91
2019-01-18T04:32:31.454Z,95096.11
2019-01-18T04:34:59.031Z,95088.70
2019-01-18T04:37:26.667Z,95092.93
2019-01-18T04:39:54.229Z,95093.66
2019-01-18T04:42:21.850Z,95084.42
2019-01-18T04:44:49.367Z,95083.70
2019-01-18T04:47:16.819Z,95099.08
2019-01-18T04:49:44.368Z,95096.91
2019-01-18T04:52:11.963Z,95102.87
2019-01-18T04:54:39.533Z,95095.81
2019-01-18T04:57:07.124Z,95096.89
2019-01-18T04:59:34.876Z,95101.71
2019-01-18T05:02:02.466Z,95092.00
2019-01-18T05:04:30.111Z,95100.33
2019-01-18T05:06:57.845Z,95103.42
2019-01-18T05:09:25.552Z,95094.86
2019-01-18T05:11:53.089Z,95104.84
2019-01-18T05:14:20.602Z,95095.91
2019-01-18T05:16:48.268Z,95101.83
2019-01-18T05:19:15.783Z,95091.25
2019-01-18T05:21:43.469Z,95094.02
2019-01-18T05:24:11.007Z,95097.32
2019-01-18T05:26:38.561Z,95097.32
2019-01-18T05:29:06.091Z,95098.03
2019-01-18T05:31:33.689Z,95098.03
2019-01-18T05:34:01.819Z,95105.54
2019-01-18T05:36:29.335Z,95106.13
2019-01-18T05:38:56.842Z,95102.55
2019-01-18T05:41:24.300Z,95095.44
2019-01-18T05:43:51.883Z,95104.31
2019-01-18T05:46:19.330Z,95103.77
2019-01-18T05:48:47.019Z,95095.41
2019-01-18T05:51:14.747Z,95105.38
2019-01-18T05:53:42.917Z,95107.69
2019-01-18T05:56:10.538Z,95106.23
2019-01-18T05:58:38.188Z,95102.88
2019-01-18T06:01:08.506Z,95109.48
2019-01-18T06:03:36.218Z,95118.12
2019-01-18T06:06:04.789Z,95118.12
2019-01-18T06:08:32.317Z,95115.25
2019-01-18T06:11:00.021Z,95107.70
2019-01-18T06:13:28.243Z,95115.24
2019-01-18T06:15:56.110Z,95113.45
2019-01-18T06:18:24.058Z,95118.85
2019-01-18T06:20:52.743Z,95116.77
2019-01-18T06:23:20.616Z,95122.30
2019-01-18T06:25:48.214Z,95119.48
2019-01-18T06:28:15.736Z,95113.74
2019-01-18T06:30:43.299Z,95128.11
2019-01-18T06:33:10.924Z,95120.71
2019-01-18T06:35:38.582Z,95143.33
2019-01-18T06:38:06.283Z,95126.77
2019-01-18T06:40:33.814Z,95136.20
2019-01-18T06:43:01.399Z,95136.20
2019-01-18T06:45:29.564Z,95131.26
2019-01-18T06:47:57.069Z,95126.51
2019-01-18T06:50:24.690Z,95130.97
2019-01-18T06:52:52.528Z,95133.55
2019-01-18T06:55:20.099Z,95143.73
2019-01-18T06:57:47.597Z,95136.44
2019-01-18T07:00:34.588Z,95124.73
2019-01-18T07:03:02.581Z,95134.66
2019-01-18T07:05:30.297Z,95123.60
2019-01-18T07:07:57.753Z,95135.48
2019-01-18T07:10:25.494Z,95125.97
2019-01-18T07:12:53.214Z,95132.34
2019-01-18T07:15:20.989Z,95130.92
2019-01-18T07:17:48.606Z,95123.32
2019-01-18T07:20:16.942Z,95114.98
2019-01-18T07:22:45.105Z,95114.98
2019-01-18T07:25:26.694Z,95115.77
2019-01-18T07:27:54.369Z,95113.22
2019-01-18T07:30:25.248Z,95102.98
2019-01-18T07:32:53.151Z,95112.67
2019-01-18T07:35:21.480Z,95121.95
2019-01-18T07:37:49.148Z,95121.02
2019-01-18T07:40:16.769Z,95126.38
2019-01-18T07:42:44.372Z,95121.05
2019-01-18T07:45:15.594Z,95124.63
2019-01-18T07:47:43.291Z,95127.66
2019-01-18T07:50:11.636Z,95150.13
2019-01-18T07:52:39.348Z,95123.05
2019-01-18T07:55:07.771Z,95132.16
2019-01-18T07:57:35.477Z,95137.39
2019-01-18T08:00:06.017Z,95129.25
2019-01-18T08:02:33.652Z,95137.62
2019-01-18T08:05:01.238Z,95145.06
2019-01-18T08:07:29.061Z,95147.44
2019-01-18T08:09:56.626Z,95144.84
2019-01-18T08:12:24.239Z,95153.74
2019-01-18T08:14:52.076Z,95151.45
2019-01-18T08:17:19.792Z,95157.56
2019-01-18T08:19:48.780Z,95165.19
2019-01-18T08:22:16.315Z,95159.59
2019-01-18T08:24:43.883Z,95162.63
2019-01-18T08:27:11.607Z,95163.72
2019-01-18T08:29:39.234Z,95156.92
2019-01-18T08:32:06.830Z,95160.34
2019-01-18T08:34:34.551Z,95152.70
2019-01-18T08:37:02.080Z,95158.33
2019-01-18T08:39:29.862Z,95150.40
2019-01-18T08:41:57.448Z,95164.66
2019-01-18T08:44:25.336Z,95149.80
2019-01-18T08:46:52.950Z,95152.36
2019-01-18T08:49:20.723Z,95161.99
2019-01-18T08:51:52.176Z,95161.89
2019-01-18T08:54:20.022Z,95148.09
2019-01-18T08:56:47.583Z,95152.56
2019-01-18T08:59:15.110Z,95149.80
2019-01-18T09:01:42.777Z,95142.92
2019-01-18T09:04:10.458Z,95146.53
2019-01-18T09:06:38.221Z,95134.18
2019-01-18T09:09:08.064Z,95138.19
2019-01-18T09:11:36.087Z,95142.92
2019-01-18T09:14:04.325Z,95134.83
2019-01-18T09:16:31.894Z,95139.89
2019-01-18T09:18:59.732Z,95136.73
2019-01-18T09:21:27.316Z,95129.19
2019-01-18T09:23:56.183Z,95123.16
2019-01-18T09:26:23.881Z,95116.80
2019-01-18T09:28:52.822Z,95117.83
2019-01-18T09:31:20.751Z,95115.27
2019-01-18T09:33:49.817Z,95108.72
2019-01-18T09:36:17.531Z,95095.13
2019-01-18T09:38:45.093Z,95102.09
2019-01-18T09:41:12.935Z,95099.00
2019-01-18T09:43:40.519Z,95095.45
2019-01-18T09:46:08.195Z,95083.70
2019-01-18T09:48:35.923Z,95080.84
2019-01-18T09:51:03.734Z,95086.23
2019-01-18T09:53:31.411Z,95083.23
2019-01-18T09:55:59.365Z,95073.34
2019-01-18T09:58:27.377Z,95083.04
2019-01-18T10:00:55.102Z,95082.52
2019-01-18T10:03:22.919Z,95074.70
2019-01-18T10:05:51.388Z,95076.73
2019-01-18T10:08:20.762Z,95066.49
2019-01-18T10:10:49.182Z,95066.59
2019-01-18T10:13:17.162Z,95072.62
2019-01-18T10:15:46.071Z,95068.02
2019-01-18T10:18:14.473Z,95057.13
2019-01-18T10:20:42.362Z,95055.56
2019-01-18T10:23:10.005Z,95048.10
2019-01-18T10:25:37.727Z,95040.98
2019-01-18T10:28:05.406Z,95045.33
2019-01-18T10:30:33.154Z,95028.46
2019-01-18T10:33:00.746Z,95021.53
2019-01-18T10:35:29.790Z,95019.55
2019-01-18T10:37:57.549Z,95028.05
2019-01-18T10:40:25.193Z,95028.97
2019-01-18T10:42:52.817Z,95023.68
2019-01-18T10:45:20.901Z,95021.09
2019-01-18T10:47:48.591Z,95015.23
2019-01-18T10:50:18.879Z,95017.07
2019-01-18T10:52:47.251Z,95020.19
2019-01-18T10:55:15.025Z,95015.98
2019-01-18T10:57:42.724Z,95018.37
2019-01-18T11:00:34.725Z,95008.30
2019-01-18T11:03:02.657Z,95004.05
2019-01-18T11:05:30.310Z,95014.35
2019-01-18T11:07:57.930Z,94998.90
2019-01-18T11:10:25.796Z,95005.82
2019-01-18T11:12:53.521Z,95003.44
2019-01-18T11:15:27.081Z,94994.12
2019-01-18T11:17:56.575Z,94996.66
2019-01-18T11:20:33.187Z,94996.32
2019-01-18T11:23:01.663Z,94979.00
2019-01-18T11:25:31.950Z,94967.28
2019-01-18T11:27:59.163Z,94966.17
2019-01-18T11:30:27.191Z,94980.36
2019-01-18T11:32:54.956Z,94969.27
2019-01-18T11:35:22.742Z,94947.42
2019-01-18T11:37:51.032Z,94944.98
2019-01-18T11:40:20.284Z,94960.45
2019-01-18T11:42:48.273Z,94949.77
2019-01-18T11:45:16.711Z,94962.65
2019-01-18T11:47:44.889Z,94962.03
2019-01-18T11:50:23.336Z,94972.27
2019-01-18T11:52:50.908Z,94958.42
2019-01-18T11:55:18.703Z,94957.09
2019-01-18T11:57:46.588Z,94964.38
2019-01-18T12:00:17.030Z,94966.70
2019-01-18T12:02:44.635Z,94968.77
2019-01-18T12:05:12.427Z,94973.31
2019-01-18T12:07:40.143Z,94969.66
2019-01-18T12:10:10.716Z,94983.45
2019-01-18T12:12:38.805Z,94974.08
2019-01-18T12:15:08.032Z,94970.31
2019-01-18T12:17:35.960Z,94965.28
2019-01-18T12:20:05.240Z,94963.90
2019-01-18T12:22:34.990Z,94959.31
2019-01-18T12:25:02.945Z,94951.69
2019-01-18T12:27:30.613Z,94955.05
2019-01-18T12:29:58.316Z,94954.41
2019-01-18T12:32:28.807Z,94946.29
2019-01-18T12:34:55.468Z,94950.83
2019-01-18T12:37:23.244Z,94949.66
2019-01-18T12:39:50.831Z,94950.67
2019-01-18T12:42:18.870Z,94957.98
2019-01-18T12:44:46.659Z,94969.34
2019-01-18T12:47:14.189Z,94959.71
2019-01-18T12:49:41.757Z,94967.20
2019-01-18T12:52:09.489Z,94957.78
2019-01-18T12:54:37.093Z,94958.72
2019-01-18T12:57:05.054Z,94955.89
2019-01-18T12:59:33.044Z,94955.16
2019-01-18T13:02:00.890Z,94972.56
2019-01-18T13:04:28.725Z,94963.77
2019-01-18T13:06:56.437Z,94964.59
2019-01-18T13:09:24.383Z,94960.42
2019-01-18T13:11:52.072Z,94971.30
2019-01-18T13:14:19.787Z,94969.59
2019-01-18T13:16:47.926Z,94965.98
2019-01-18T13:19:21.569Z,94976.59
2019-01-18T13:21:49.082Z,94971.62
2019-01-18T13:24:16.673Z,94972.66
2019-01-18T13:26:44.366Z,94972.97
2019-01-18T13:29:12.250Z,94975.34
2019-01-18T13:31:39.970Z,94971.01
2019-01-18T13:34:07.730Z,94973.34
2019-01-18T13:36:35.377Z,94960.59
2019-01-18T13:39:06.175Z,94960.69
2019-01-18T13:41:33.785Z,94965.81
2019-01-18T13:44:01.490Z,94960.64
2019-01-18T13:46:29.396Z,94961.61
2019-01-18T13:48:57.275Z,94963.13
2019-01-18T13:51:24.914Z,94963.22
2019-01-18T13:53:52.640Z,94970.03
2019-01-18T13:56:20.393Z,94966.12
2019-01-18T13:58:48.020Z,94967.95
2019-01-18T14:01:15.807Z,94974.41
2019-01-18T14:03:43.590Z,94979.30
2019-01-18T14:06:11.325Z,94970.45
2019-01-18T14:08:39.096Z,94974.67
2019-01-18T14:11:17.248Z,94962.20
2019-01-18T14:13:44.920Z,94963.78
2019-01-18T14:16:12.960Z,94964.38
2019-01-18T14:18:41.584Z,94963.21
2019-01-18T14:21:10.566Z,94958.27
2019-01-18T14:23:38.183Z,94955.31
2019-01-18T14:26:05.790Z,94955.02
2019-01-18T14:28:33.372Z,94953.05
2019-01-18T14:31:01.089Z,94948.64
2019-01-18T14:33:28.857Z,94947.61
2019-01-18T14:35:56.422Z,94949.40
2019-01-18T14:38:25.133Z,94951.47
2019-01-18T14:40:52.930Z,94947.91
2019-01-18T14:43:20.517Z,94937.45
2019-01-18T14:45:47.956Z,94935.94
2019-01-18T14:48:15.494Z,94945.52
2019-01-18T14:50:43.486Z,94934.41
2019-01-18T14:53:11.516Z,94941.99
2019-01-18T14:55:39.796Z,94940.35
2019-01-18T14:58:10.216Z,94955.04
2019-01-18T15:00:39.429Z,94947.59
2019-01-18T15:03:07.140Z,94953.94
2019-01-18T15:05:35.137Z,94951.95
2019-01-18T15:08:02.933Z,94961.00
2019-01-18T15:10:30.674Z,94958.09
2019-01-18T15:13:01.169Z,94969.58
2019-01-18T15:15:28.958Z,94959.52
2019-01-18T15:17:56.772Z,94954.17
2019-01-18T15:20:26.793Z,94960.05
2019-01-18T15:22:54.585Z,94957.73
2019-01-18T15:25:22.368Z,94958.95
2019-01-18T15:27:50.532Z,94960.40
2019-01-18T15:30:20.772Z,94953.91
2019-01-18T15:32:48.262Z,94944.17
2019-01-18T15:35:17.462Z,94957.80
2019-01-18T15:37:45.016Z,94958.02
2019-01-18T15:40:15.025Z,94959.81
2019-01-18T15:42:42.599Z,94967.80
2019-01-18T15:45:10.716Z,94968.61
2019-01-18T15:47:38.246Z,94957.05
2019-01-18T15:50:09.645Z,94960.28
2019-01-18T15:52:37.283Z,94973.77
2019-01-18T15:55:06.060Z,94966.74
2019-01-18T15:57:33.563Z,94968.77
2019-01-18T16:00:01.384Z,94967.84
2019-01-18T16:02:29.137Z,94975.98
2019-01-18T16:04:56.776Z,94981.14
2019-01-18T16:07:24.323Z,94975.72
2019-01-18T16:09:51.896Z,94961.15
2019-01-18T16:12:19.478Z,94956.47
2019-01-18T16:14:47.171Z,94958.61
2019-01-18T16:17:22.597Z,94969.91
2019-01-18T16:19:50.478Z,94959.52
2019-01-18T16:22:18.147Z,94973.48
2019-01-18T16:24:45.666Z,94969.73
2019-01-18T16:27:13.125Z,94965.80
2019-01-18T16:29:40.716Z,94971.34
2019-01-18T16:32:08.324Z,94972.15
2019-01-18T16:34:35.915Z,94966.36
2019-01-18T16:37:03.651Z,94978.83
2019-01-18T16:39:31.484Z,94979.15
2019-01-18T16:41:59.175Z,94985.97
2019-01-18T16:44:27.127Z,94990.61
2019-01-18T16:46:54.817Z,95000.39
2019-01-18T16:49:22.712Z,94990.89
2019-01-18T16:51:50.501Z,94982.96
2019-01-18T16:54:18.139Z,94986.48
2019-01-18T16:56:45.621Z,94979.52
2019-01-18T16:59:13.746Z,94981.68
2019-01-18T17:01:41.401Z,94986.89
2019-01-18T17:04:09.061Z,94996.97
2019-01-18T17:06:36.957Z,94989.06
2019-01-18T17:09:26.051Z,94977.92
2019-01-18T17:11:53.568Z,94988.45
2019-01-18T17:14:21.079Z,94989.21
2019-01-18T17:16:48.595Z,94981.31
2019-01-18T17:19:15.990Z,94978.54
2019-01-18T17:21:43.438Z,94985.56
2019-01-18T17:24:10.990Z,95003.22
2019-01-18T17:26:38.482Z,94999.03
2019-01-18T17:29:05.933Z,94996.95
2019-01-18T17:31:33.577Z,94997.65
2019-01-18T17:34:01.215Z,94997.06
2019-01-18T17:36:35.648Z,94982.94
2019-01-18T17:39:21.687Z,94979.67
2019-01-18T17:42:42.241Z,94983.42
2019-01-18T17:45:46.250Z,94989.00
2019-01-18T17:48:26.091Z,94992.27
2019-01-18T17:51:27.407Z,94990.90
2019-01-18T17:54:13.407Z,94988.61
2019-01-18T17:57:09.718Z,94983.16
2019-01-18T18:00:24.625Z,94989.16
2019-01-18T18:03:43.617Z,94985.41
2019-01-18T18:06:43.997Z,94991.45
2019-01-18T18:09:23.484Z,94984.66
2019-01-18T18:12:17.168Z,94975.41
2019-01-18T18:15:10.754Z,94991.94
2019-01-18T18:17:45.016Z,94997.47
2019-01-18T18:20:37.925Z,94996.31
2019-01-18T18:23:53.936Z,94986.41
2019-01-18T18:26:48.819Z,94986.32
2019-01-18T18:29:54.009Z,94994.98
2019-01-18T18:33:14.590Z,94999.29
2019-01-18T18:36:24.305Z,94996.48
2019-01-18T18:39:29.365Z,94991.66
2019-01-18T18:42:33.770Z,94989.56
2019-01-18T18:45:48.895Z,94991.27
2019-01-18T18:48:50.639Z,95000.56
2019-01-18T18:51:43.935Z,94995.68
2019-01-18T18:54:48.128Z,95011.97
2019-01-18T18:57:26.465Z,95008.86
2019-01-18T19:00:41.645Z,95011.14
2019-01-18T19:03:57.573Z,95005.66
2019-01-18T19:07:35.640Z,95004.66
2019-01-18T19:10:33.618Z,95005.38
2019-01-18T19:13:45.584Z,95000.47
2019-01-18T19:16:34.684Z,95011.36
2019-01-18T19:19:34.464Z,95017.34
2019-01-18T19:22:29.027Z,95015.14
2019-01-18T19:25:37.189Z,95009.37
2019-01-18T19:28:36.197Z,95008.70
2019-01-18T19:32:00.704Z,95005.45
2019-01-18T19:35:14.781Z,95009.75
2019-01-18T19:38:28.519Z,95003.52
2019-01-18T19:41:53.255Z,95008.16
2019-01-18T19:44:58.085Z,95017.26
2019-01-18T19:48:01.681Z,95032.64
2019-01-18T19:50:59.561Z,95019.33
2019-01-18T19:54:02.336Z,95024.03
2019-01-18T19:57:20.495Z,95033.36
2019-01-18T20:00:19.621Z,95040.13
2019-01-18T20:03:17.160Z,95039.89
2019-01-18T20:06:41.402Z,95037.94
2019-01-18T20:09:15.978Z,95026.30
2019-01-18T20:12:28.959Z,95033.70
2019-01-18T20:15:12.954Z,95028.07
2019-01-18T20:18:07.174Z,95034.69
2019-01-18T20:21:19.877Z,95038.33
2019-01-18T20:24:27.572Z,95040.44
2019-01-18T20:27:25.762Z,95031.45
2019-01-18T20:30:11.371Z,95031.09
2019-01-18T20:32:50.349Z,95051.84
2019-01-18T20:35:58.400Z,95039.93
2019-01-18T20:39:16.054Z,95047.98
2019-01-18T20:42:14.741Z,95042.39
2019-01-18T20:45:26.026Z,95040.52
2019-01-18T20:48:34.451Z,95050.50
2019-01-18T20:51:39.834Z,95045.25
2019-01-18T20:54:44.314Z,95069.06
2019-01-18T20:57:34.905Z,95063.79
2019-01-18T21:00:31.278Z,95057.05
2019-01-18T21:03:42.264Z,95061.77
2019-01-18T21:06:30.110Z,95073.67
2019-01-18T21:09:57.348Z,95065.80
2019-01-18T21:12:56.260Z,95070.88
2019-01-18T21:15:43.889Z,95063.08
2019-01-18T21:18:31.576Z,95079.92
2019-01-18T21:21:51.923Z,95090.76
2019-01-18T21:24:46.430Z,95090.98
2019-01-18T21:27:52.687Z,95105.72
2019-01-18T21:30:36.553Z,95099.14
2019-01-18T21:33:48.376Z,95094.44
2019-01-18T21:37:18.391Z,95098.52
2019-01-18T21:40:27.882Z,95099.66
2019-01-18T21:43:31.629Z,95093.41
2019-01-18T21:46:42.430Z,95090.81
2019-01-18T21:49:24.594Z,95097.55
2019-01-18T21:52:35.468Z,95091.66
2019-01-18T21:55:14.801Z,95100.80
2019-01-18T21:58:32.788Z,95096.66
2019-01-18T22:01:29.106Z,95097.98
2019-01-18T22:04:43.569Z,95101.88
2019-01-18T22:07:56.063Z,95083.46
2019-01-18T22:10:54.438Z,95089.78
2019-01-18T22:13:57.462Z,95084.26
2019-01-18T22:16:54.106Z,95077.90
2019-01-18T22:20:08.104Z,95084.14
2019-01-18T22:23:12.528Z,95080.53
2019-01-18T22:26:02.902Z,95078.80
2019-01-18T22:29:24.286Z,95077.41
2019-01-18T22:32:20.913Z,95083.77
2019-01-18T22:35:21.212Z,95089.21
2019-01-18T22:38:00.975Z,95082.88
2019-01-18T22:41:10.183Z,95075.75
2019-01-18T22:44:17.652Z,95087.20
2019-01-18T22:47:19.778Z,95088.49
2019-01-18T22:50:02.673Z,95080.14
2019-01-18T22:52:41.094Z,95073.69
2019-01-18T22:55:54.278Z,95071.92
2019-01-18T22:58:50.382Z,95081.91
2019-01-18T23:01:39.731Z,95072.30
2019-01-18T23:04:36.289Z,95059.80
2019-01-18T23:07:43.448Z,95062.23
2019-01-18T23:10:37.654Z,95074.48
2019-01-18T23:14:01.707Z,95073.95
2019-01-18T23:17:09.297Z,95078.59
2019-01-18T23:20:28.942Z,95085.53
2019-01-18T23:23:53.358Z,95083.26
2019-01-18T23:27:13.554Z,95096.01
2019-01-18T23:29:49.421Z,95100.86
2019-01-18T23:32:28.022Z,95069.66
2019-01-18T23:35:17.639Z,95102.02
2019-01-18T23:38:36.417Z,95111.44
2019-01-18T23:41:48.885Z,95106.69
2019-01-18T23:45:14.439Z,95109.03
2019-01-18T23:48:12.863Z,95107.64
2019-01-18T23:51:15.147Z,95100.41
2019-01-18T23:54:15.393Z,95110.38
2019-01-18T23:57:11.565Z,95111.80
